Terminal Aerodrome Forecast
Issued by NWS

Home | Current Version | Previous Version | Text Only | Print | Product List | Glossary On
Versions: 1 2 3 4 5 6 7 8 9 10 11 12 13
000
FTAK31 PAJN 021145
TAFAYA
TAF
PAYA 021145Z 0212/0312 00000KT P6SM SKC
     FM021800 06004KT P6SM SKC
     FM022100 33005KT P6SM SKC
     FM030600 00000KT P6SM SKC
      AMD LTD TO CLD AND WIND 0206/0210=

USA.gov is the U.S. government's official web portal to all federal, state and local government web resources and services.